Em Athens — V7US8 — position and weather

sailwx.info

Track history (hours):
 
Tides and Currents Weather Stations Pressure Air Temp Water Temp Dewpoint Dewpoint Depression Visibility Wind Speed Wind Dir Waves Ship Positions

Em Athens

Last reported at 2016-Dec-18 10:19 UTC. Time now 2017-Jan-17 21:24 UTC.
Position N 35°58' W 005°34'.
Warning: this ship's position is 30 days out of date.

Length 207 m; draft 10.3 m.

Type: Ship (hazmat cat C). MMSI: 538004019.

Date/timePositionNaut miles runAvg speedWind from/ knotsBaromVisibWave heightAir tempDewpointWater temp
2016-Dec-18 10:19N 35°58' W 005°34'7 9.6
2016-Dec-18 09:33N 36°00' W 005°26'5 4.7
2016-Dec-18 08:30N 36°05' W 005°24'0 0.0
2016-Dec-18 07:24N 36°05' W 005°24'0 0.0
2016-Dec-18 06:30N 36°05' W 005°24'0 0.0
2016-Dec-18 05:30N 36°05' W 005°24'0 0.0
2016-Dec-18 04:33N 36°05' W 005°24'0 0.0
2016-Dec-18 03:24N 36°05' W 005°24'0 0.0
2016-Dec-18 02:30N 36°05' W 005°24'0 0.0
2016-Dec-18 01:30N 36°05' W 005°24'0 0.0
2016-Dec-18 00:24N 36°05' W 005°24'0 0.0
2016-Dec-17 23:24N 36°05' W 005°24'0 0.0
2016-Dec-17 22:12N 36°05' W 005°24'0 0.0
2016-Dec-17 20:18N 36°05' W 005°24'0 0.0
2016-Dec-17 19:33N 36°05' W 005°24'0 0.0
2016-Dec-17 18:16N 36°05' W 005°24'0 0.0
2016-Dec-17 16:24N 36°05' W 005°24'0 0.1
2016-Dec-17 15:18N 36°05' W 005°24'0 0.1
2016-Dec-17 14:30N 36°05' W 005°24'0 0.1
2016-Dec-17 13:30N 36°05' W 005°24'0 0.0
2016-Dec-17 11:30N 36°05' W 005°24'0 0.0
2016-Dec-17 10:30N 36°05' W 005°24'0 0.0
2016-Dec-17 09:21N 36°05' W 005°24'0 0.0
2016-Dec-17 08:30N 36°05' W 005°24'0 0.0
2016-Dec-17 07:27N 36°05' W 005°24'0 0.0
2016-Dec-17 06:33N 36°05' W 005°24'0 0.1
2016-Dec-17 05:30N 36°05' W 005°24'0 0.2
2016-Dec-17 04:30N 36°05' W 005°24'0 0.1
2016-Dec-17 03:30N 36°05' W 005°24'0 0.0
2016-Dec-16 21:24N 36°05' W 005°24'0 0.0
2016-Dec-16 16:27N 36°05' W 005°24'0 0.0
2016-Dec-16 12:30N 36°05' W 005°24'0 0.1
2016-Dec-16 11:27N 36°05' W 005°24'0 0.0
2016-Dec-16 10:33N 36°05' W 005°24'0 0.0
2016-Dec-16 09:30N 36°05' W 005°24'0 0.1
2016-Dec-16 07:12N 36°05' W 005°24'0 0.0
2016-Dec-16 06:33N 36°05' W 005°24'0 0.1
2016-Dec-16 05:30N 36°05' W 005°24'0 0.1
2016-Dec-16 04:30N 36°05' W 005°24'0 0.0
2016-Dec-16 03:33N 36°05' W 005°24'0 0.1
2016-Dec-16 02:12N 36°05' W 005°24'0 0.0
2016-Dec-15 17:24N 36°05' W 005°24'0 0.0
2016-Dec-15 15:09N 36°05' W 005°24'0 0.1
2016-Dec-15 10:21N 36°05' W 005°24'3 0.1
2016-Dec-14 11:16N 36°09' W 005°24'14011.9
2016-Dec-13 23:34N 36°24' W 002°32'1414.3
2016-Dec-13 22:34N 36°27' W 002°15'1913.5
2016-Dec-13 21:11N 36°36' W 001°55'1013.5
2016-Dec-13 20:28N 36°43' W 001°46'5513.9
2016-Dec-13 16:30N 37°19' W 000°55'1313.5
2016-Dec-13 15:33N 37°28' W 000°42'1413.5
2016-Dec-13 14:33N 37°37' W 000°30'1513.8
2016-Dec-13 13:30N 37°50' W 000°21'9311.8
2016-Dec-13 05:33N 39°22' W 000°08'10 9.6
2016-Dec-13 04:32N 39°27' W 000°19'0 0.0
2016-Dec-13 03:32N 39°27' W 000°19'0 0.0
2016-Dec-13 02:32N 39°27' W 000°19'0 0.0
2016-Dec-13 01:29N 39°27' W 000°19'0 0.0
2016-Dec-13 00:29N 39°27' W 000°19'0 0.0
2016-Dec-12 23:29N 39°27' W 000°19'0 0.0
2016-Dec-12 22:32N 39°27' W 000°19'0 0.0
2016-Dec-12 21:29N 39°27' W 000°19'0 0.0
2016-Dec-12 20:32N 39°27' W 000°19'0 0.0
2016-Dec-12 19:32N 39°27' W 000°19'0 0.0
2016-Dec-12 18:29N 39°27' W 000°19'0 0.0
2016-Dec-12 17:32N 39°27' W 000°19'0 0.0
2016-Dec-12 16:32N 39°27' W 000°19'0 0.0
2016-Dec-12 15:29N 39°27' W 000°19'0 0.0
2016-Dec-12 14:23N 39°27' W 000°19'0 0.0
2016-Dec-12 13:32N 39°27' W 000°19'0 0.0
2016-Dec-12 12:32N 39°27' W 000°19'0 0.0
2016-Dec-12 11:32N 39°27' W 000°19'0 0.0
2016-Dec-12 10:32N 39°27' W 000°19'0 0.0
2016-Dec-12 09:32N 39°27' W 000°19'0 0.0
2016-Dec-12 08:32N 39°27' W 000°19'0 0.0
2016-Dec-12 07:32N 39°27' W 000°19'0 0.0
2016-Dec-12 05:32N 39°27' W 000°19'0 0.0
2016-Dec-12 04:32N 39°27' W 000°19'0 0.0
2016-Dec-12 03:32N 39°27' W 000°19'0 0.0
2016-Dec-12 02:32N 39°27' W 000°19'0 0.0
2016-Dec-12 01:32N 39°27' W 000°19'0 0.0
2016-Dec-12 00:32N 39°27' W 000°19'0 0.0
2016-Dec-11 23:23N 39°27' W 000°19'0 0.0
2016-Dec-11 22:17N 39°27' W 000°19'0 0.0
2016-Dec-11 21:32N 39°27' W 000°19'0 0.0
2016-Dec-11 20:32N 39°27' W 000°19'0 0.0
2016-Dec-11 19:23N 39°27' W 000°19'0 0.0
2016-Dec-11 18:26N 39°27' W 000°19'0 0.0
2016-Dec-11 17:32N 39°27' W 000°19'0 0.0
2016-Dec-11 16:32N 39°27' W 000°19'0 0.0
2016-Dec-11 15:32N 39°27' W 000°19'0 0.0
2016-Dec-11 14:32N 39°27' W 000°19'0 0.0
2016-Dec-11 13:32N 39°27' W 000°19'0 0.0
2016-Dec-11 12:26N 39°27' W 000°19'0 0.0
2016-Dec-11 11:32N 39°27' W 000°19'0 0.0
2016-Dec-11 10:32N 39°27' W 000°19'0 0.0
2016-Dec-11 09:32N 39°27' W 000°19'2 2.1
2016-Dec-11 08:33N 39°25' W 000°17'3 3.1
2016-Dec-11 07:29N 39°24' W 000°14'0 0.0
2016-Dec-11 06:32N 39°24' W 000°14'0 0.0
2016-Dec-11 04:26N 39°24' W 000°14'0 0.0
2016-Dec-11 03:23N 39°24' W 000°14'0 0.0
2016-Dec-11 02:32N 39°24' W 000°14'0 0.0
2016-Dec-11 01:32N 39°24' W 000°14'0 0.0
2016-Dec-11 00:29N 39°24' W 000°14'0 0.0
2016-Dec-10 23:32N 39°24' W 000°14'0 0.0
2016-Dec-10 22:23N 39°24' W 000°14'0 0.0
2016-Dec-10 21:17N 39°24' W 000°14'0 0.2
2016-Dec-10 20:26N 39°24' W 000°14'0 0.0
2016-Dec-10 19:14N 39°24' W 000°14'0 0.0
2016-Dec-10 12:17N 39°24' W 000°14'0 0.0
2016-Dec-10 11:17N 39°24' W 000°14'0 0.0
2016-Dec-10 04:32N 39°24' W 000°14'0 0.0
2016-Dec-10 02:23N 39°23' W 000°14'2 2.1
2016-Dec-10 01:33N 39°24' W 000°11'8015.9
2016-Dec-09 20:33N 40°10' E 001°13'5416.9
2016-Dec-09 17:22N 40°55' E 001°53'3013.0
2016-Dec-09 15:05N 41°21' E 002°10'0 0.0
2016-Dec-09 14:23N 41°21' E 002°10'0 0.0
2016-Dec-09 13:29N 41°21' E 002°10'0 0.0
2016-Dec-09 12:32N 41°21' E 002°10'0 0.0
2016-Dec-09 11:29N 41°21' E 002°10'0 0.0
2016-Dec-09 10:29N 41°21' E 002°10'0 0.0
2016-Dec-09 09:29N 41°21' E 002°10'0 0.0
2016-Dec-09 08:05N 41°21' E 002°10'0 0.0
2016-Dec-09 07:08N 41°21' E 002°10'3 4.5
2016-Dec-09 06:33N 41°18' E 002°11'5 3.9
2016-Dec-09 05:23N 41°15' E 002°15'18 8.3
2016-Dec-09 03:11N 41°23' E 002°37'15714.8
2016-Dec-08 16:33N 43°14' E 005°08'  
Track history (hours):
 
Tides and Currents Weather Stations Pressure Air Temp Water Temp Dewpoint Dewpoint Depression Visibility Wind Speed Wind Dir Waves Ship Positions

Em Athens

Last reported at 2016-Dec-18 10:19 UTC. Time now 2017-Jan-17 21:24 UTC.
Position N 35°58' W 005°34'.
Warning: this ship's position is 30 days out of date.

Length 207 m; draft 10.3 m.

Type: Ship (hazmat cat C). MMSI: 538004019.

Date/timePositionNaut miles runAvg speedWind from/ knotsBaromVisibWave heightAir tempDewpointWater temp
2016-Dec-18 10:19N 35°58' W 005°34'7 9.6
2016-Dec-18 09:33N 36°00' W 005°26'5 4.7
2016-Dec-18 08:30N 36°05' W 005°24'0 0.0
2016-Dec-18 07:24N 36°05' W 005°24'0 0.0
2016-Dec-18 06:30N 36°05' W 005°24'0 0.0
2016-Dec-18 05:30N 36°05' W 005°24'0 0.0
2016-Dec-18 04:33N 36°05' W 005°24'0 0.0
2016-Dec-18 03:24N 36°05' W 005°24'0 0.0
2016-Dec-18 02:30N 36°05' W 005°24'0 0.0
2016-Dec-18 01:30N 36°05' W 005°24'0 0.0
2016-Dec-18 00:24N 36°05' W 005°24'0 0.0
2016-Dec-17 23:24N 36°05' W 005°24'0 0.0
2016-Dec-17 22:12N 36°05' W 005°24'0 0.0
2016-Dec-17 20:18N 36°05' W 005°24'0 0.0
2016-Dec-17 19:33N 36°05' W 005°24'0 0.0
2016-Dec-17 18:16N 36°05' W 005°24'0 0.0
2016-Dec-17 16:24N 36°05' W 005°24'0 0.1
2016-Dec-17 15:18N 36°05' W 005°24'0 0.1
2016-Dec-17 14:30N 36°05' W 005°24'0 0.1
2016-Dec-17 13:30N 36°05' W 005°24'0 0.0
2016-Dec-17 11:30N 36°05' W 005°24'0 0.0
2016-Dec-17 10:30N 36°05' W 005°24'0 0.0
2016-Dec-17 09:21N 36°05' W 005°24'0 0.0
2016-Dec-17 08:30N 36°05' W 005°24'0 0.0
2016-Dec-17 07:27N 36°05' W 005°24'0 0.0
2016-Dec-17 06:33N 36°05' W 005°24'0 0.1
2016-Dec-17 05:30N 36°05' W 005°24'0 0.2
2016-Dec-17 04:30N 36°05' W 005°24'0 0.1
2016-Dec-17 03:30N 36°05' W 005°24'0 0.0
2016-Dec-16 21:24N 36°05' W 005°24'0 0.0
2016-Dec-16 16:27N 36°05' W 005°24'0 0.0
2016-Dec-16 12:30N 36°05' W 005°24'0 0.1
2016-Dec-16 11:27N 36°05' W 005°24'0 0.0
2016-Dec-16 10:33N 36°05' W 005°24'0 0.0
2016-Dec-16 09:30N 36°05' W 005°24'0 0.1
2016-Dec-16 07:12N 36°05' W 005°24'0 0.0
2016-Dec-16 06:33N 36°05' W 005°24'0 0.1
2016-Dec-16 05:30N 36°05' W 005°24'0 0.1
2016-Dec-16 04:30N 36°05' W 005°24'0 0.0
2016-Dec-16 03:33N 36°05' W 005°24'0 0.1
2016-Dec-16 02:12N 36°05' W 005°24'0 0.0
2016-Dec-15 17:24N 36°05' W 005°24'0 0.0
2016-Dec-15 15:09N 36°05' W 005°24'0 0.1
2016-Dec-15 10:21N 36°05' W 005°24'3 0.1
2016-Dec-14 11:16N 36°09' W 005°24'14011.9
2016-Dec-13 23:34N 36°24' W 002°32'1414.3
2016-Dec-13 22:34N 36°27' W 002°15'1913.5
2016-Dec-13 21:11N 36°36' W 001°55'1013.5
2016-Dec-13 20:28N 36°43' W 001°46'5513.9
2016-Dec-13 16:30N 37°19' W 000°55'1313.5
2016-Dec-13 15:33N 37°28' W 000°42'1413.5
2016-Dec-13 14:33N 37°37' W 000°30'1513.8
2016-Dec-13 13:30N 37°50' W 000°21'9311.8
2016-Dec-13 05:33N 39°22' W 000°08'10 9.6
2016-Dec-13 04:32N 39°27' W 000°19'0 0.0
2016-Dec-13 03:32N 39°27' W 000°19'0 0.0
2016-Dec-13 02:32N 39°27' W 000°19'0 0.0
2016-Dec-13 01:29N 39°27' W 000°19'0 0.0
2016-Dec-13 00:29N 39°27' W 000°19'0 0.0
2016-Dec-12 23:29N 39°27' W 000°19'0 0.0
2016-Dec-12 22:32N 39°27' W 000°19'0 0.0
2016-Dec-12 21:29N 39°27' W 000°19'0 0.0
2016-Dec-12 20:32N 39°27' W 000°19'0 0.0
2016-Dec-12 19:32N 39°27' W 000°19'0 0.0
2016-Dec-12 18:29N 39°27' W 000°19'0 0.0
2016-Dec-12 17:32N 39°27' W 000°19'0 0.0
2016-Dec-12 16:32N 39°27' W 000°19'0 0.0
2016-Dec-12 15:29N 39°27' W 000°19'0 0.0
2016-Dec-12 14:23N 39°27' W 000°19'0 0.0
2016-Dec-12 13:32N 39°27' W 000°19'0 0.0
2016-Dec-12 12:32N 39°27' W 000°19'0 0.0
2016-Dec-12 11:32N 39°27' W 000°19'0 0.0
2016-Dec-12 10:32N 39°27' W 000°19'0 0.0
2016-Dec-12 09:32N 39°27' W 000°19'0 0.0
2016-Dec-12 08:32N 39°27' W 000°19'0 0.0
2016-Dec-12 07:32N 39°27' W 000°19'0 0.0
2016-Dec-12 05:32N 39°27' W 000°19'0 0.0
2016-Dec-12 04:32N 39°27' W 000°19'0 0.0
2016-Dec-12 03:32N 39°27' W 000°19'0 0.0
2016-Dec-12 02:32N 39°27' W 000°19'0 0.0
2016-Dec-12 01:32N 39°27' W 000°19'0 0.0
2016-Dec-12 00:32N 39°27' W 000°19'0 0.0
2016-Dec-11 23:23N 39°27' W 000°19'0 0.0
2016-Dec-11 22:17N 39°27' W 000°19'0 0.0
2016-Dec-11 21:32N 39°27' W 000°19'0 0.0
2016-Dec-11 20:32N 39°27' W 000°19'0 0.0
2016-Dec-11 19:23N 39°27' W 000°19'0 0.0
2016-Dec-11 18:26N 39°27' W 000°19'0 0.0
2016-Dec-11 17:32N 39°27' W 000°19'0 0.0
2016-Dec-11 16:32N 39°27' W 000°19'0 0.0
2016-Dec-11 15:32N 39°27' W 000°19'0 0.0
2016-Dec-11 14:32N 39°27' W 000°19'0 0.0
2016-Dec-11 13:32N 39°27' W 000°19'0 0.0
2016-Dec-11 12:26N 39°27' W 000°19'0 0.0
2016-Dec-11 11:32N 39°27' W 000°19'0 0.0
2016-Dec-11 10:32N 39°27' W 000°19'0 0.0
2016-Dec-11 09:32N 39°27' W 000°19'2 2.1
2016-Dec-11 08:33N 39°25' W 000°17'3 3.1
2016-Dec-11 07:29N 39°24' W 000°14'0 0.0
2016-Dec-11 06:32N 39°24' W 000°14'0 0.0
2016-Dec-11 04:26N 39°24' W 000°14'0 0.0
2016-Dec-11 03:23N 39°24' W 000°14'0 0.0
2016-Dec-11 02:32N 39°24' W 000°14'0 0.0
2016-Dec-11 01:32N 39°24' W 000°14'0 0.0
2016-Dec-11 00:29N 39°24' W 000°14'0 0.0
2016-Dec-10 23:32N 39°24' W 000°14'0 0.0
2016-Dec-10 22:23N 39°24' W 000°14'0 0.0
2016-Dec-10 21:17N 39°24' W 000°14'0 0.2
2016-Dec-10 20:26N 39°24' W 000°14'0 0.0
2016-Dec-10 19:14N 39°24' W 000°14'0 0.0
2016-Dec-10 12:17N 39°24' W 000°14'0 0.0
2016-Dec-10 11:17N 39°24' W 000°14'0 0.0
2016-Dec-10 04:32N 39°24' W 000°14'0 0.0
2016-Dec-10 02:23N 39°23' W 000°14'2 2.1
2016-Dec-10 01:33N 39°24' W 000°11'8015.9
2016-Dec-09 20:33N 40°10' E 001°13'5416.9
2016-Dec-09 17:22N 40°55' E 001°53'3013.0
2016-Dec-09 15:05N 41°21' E 002°10'0 0.0
2016-Dec-09 14:23N 41°21' E 002°10'0 0.0
2016-Dec-09 13:29N 41°21' E 002°10'0 0.0
2016-Dec-09 12:32N 41°21' E 002°10'0 0.0
2016-Dec-09 11:29N 41°21' E 002°10'0 0.0
2016-Dec-09 10:29N 41°21' E 002°10'0 0.0
2016-Dec-09 09:29N 41°21' E 002°10'0 0.0
2016-Dec-09 08:05N 41°21' E 002°10'0 0.0
2016-Dec-09 07:08N 41°21' E 002°10'3 4.5
2016-Dec-09 06:33N 41°18' E 002°11'5 3.9
2016-Dec-09 05:23N 41°15' E 002°15'18 8.3
2016-Dec-09 03:11N 41°23' E 002°37'15714.8
2016-Dec-08 16:33N 43°14' E 005°08'  

Dump ship's entire track history